< < Back
Terminal Aerodrome Forecast


Current Version              Previous Versions:   1  2  3  4  5  6  7  8  9  

Terminal Aerodrome Forecast

240
FTUS44 KOHX 222300
TAFBNA
TAF
KBNA 222340Z 2300/2324 34012G18KT P6SM FEW060
     FM230400 36008KT P6SM SKC
     FM231400 04011KT P6SM FEW060=

Latest METAR

306
SAUS70 KWBC 231300 RRE
MTRBNA
METAR KBNA 231253Z 05008KT 10SM CLR 12/02 A3008 RMK AO2 SLP182
T01170017


USA.gov is the U.S. government's official web portal to all federal, state and local government web resources and services.